Time;durP1;ratioP1;P1;durP2;ratioP2;P2;SDS_P1;SDS_P2;PMS_P1;PMS_P2;Temp;Humidity;BMP_temperature;BMP_pressure;BME280_temperature;BME280_humidity;BME280_pressure;Samples;Min_cycle;Max_cycle;Signal;HPM_P1;HPM_P2
2022/10/25 00:01:26;;;;;;;14.47;9.98;;;;;;;10.36;100.00;97998.02;1825905;77;20907;-60
2022/10/25 00:03:53;;;;;;;14.05;10.58;;;;;;;10.39;100.00;97997.98;1814312;77;20871;-60
2022/10/25 00:06:20;;;;;;;16.12;10.82;;;;;;;10.41;100.00;97993.13;1829042;77;21632;-60
2022/10/25 00:08:47;;;;;;;13.58;11.12;;;;;;;10.41;100.00;97991.23;1767710;80;21026;-60
2022/10/25 00:11:23;;;;;;;15.53;10.20;;;;;;;10.40;100.00;97985.64;1749509;80;21055;-60
2022/10/25 00:13:52;;;;;;;18.35;10.50;;;;;;;10.40;100.00;97978.94;1757708;80;20884;-60
2022/10/25 00:16:23;;;;;;;13.65;10.55;;;;;;;10.40;100.00;97974.92;1762631;80;21072;-60
2022/10/25 00:18:51;;;;;;;14.65;10.48;;;;;;;10.40;100.00;97965.55;1771606;80;20935;-60
2022/10/25 00:21:18;;;;;;;15.35;11.75;;;;;;;10.41;100.00;97973.83;1838174;77;21242;-60
2022/10/25 00:23:45;;;;;;;18.87;10.30;;;;;;;10.40;100.00;97972.78;1813249;77;20990;-60
2022/10/25 00:26:12;;;;;;;14.85;10.32;;;;;;;10.42;100.00;97966.06;1825798;77;20998;-60
2022/10/25 00:28:39;;;;;;;16.27;10.38;;;;;;;10.45;100.00;97962.81;1821751;77;20931;-60
2022/10/25 00:31:14;;;;;;;16.85;10.48;;;;;;;10.50;100.00;97971.31;1827182;77;21372;-60
2022/10/25 00:33:42;;;;;;;16.57;10.45;;;;;;;10.52;100.00;97963.24;1821615;77;21194;-60
2022/10/25 00:36:17;;;;;;;15.23;10.65;;;;;;;10.53;100.00;97970.17;1838810;77;21391;-60
2022/10/25 00:38:45;;;;;;;16.97;9.63;;;;;;;10.51;100.00;97964.31;1818419;77;20971;-60
2022/10/25 00:41:14;;;;;;;14.70;8.70;;;;;;;10.47;100.00;97968.67;1816568;77;20988;-60
2022/10/25 00:43:47;;;;;;;17.07;10.58;;;;;;;10.42;100.00;97960.70;1835366;77;20900;-59
2022/10/25 01:07:19;;;;;;;15.72;9.70;;;;;;;10.36;100.00;97952.50;1745510;81;20924;-59
2022/10/25 01:09:47;;;;;;;12.73;9.58;;;;;;;10.37;100.00;97952.73;1823693;77;20945;-59
2022/10/25 01:12:13;;;;;;;16.57;10.15;;;;;;;10.35;100.00;97949.56;1824342;77;21233;-60
2022/10/25 01:14:42;;;;;;;18.65;10.50;;;;;;;10.35;100.00;97948.76;1816506;77;20888;-59
2022/10/25 01:17:35;;;;;;;17.92;11.08;;;;;;;10.34;100.00;97941.27;1828532;77;20824;-60
2022/10/25 01:20:28;;;;;;;13.95;9.85;;;;;;;10.32;100.00;97942.66;1810937;77;21482;-62
2022/10/25 01:23:14;;;;;;;15.20;9.65;;;;;;;10.27;100.00;97932.80;1810347;77;20939;-61
2022/10/25 01:26:22;;;;;;;18.27;10.15;;;;;;;10.25;100.00;97938.45;1819692;77;21144;-61
2022/10/25 01:29:30;;;;;;;15.45;10.28;;;;;;;10.24;100.00;97933.39;1816240;77;20899;-60
2022/10/25 01:32:01;;;;;;;17.70;10.88;;;;;;;10.24;100.00;97932.05;1809125;77;20884;-60
2022/10/25 01:34:33;;;;;;;19.42;9.70;;;;;;;10.22;100.00;97928.87;1770304;80;20925;-60
2022/10/25 01:37:10;;;;;;;13.13;9.08;;;;;;;10.19;100.00;97923.55;1826515;77;21069;-60
2022/10/25 01:40:00;;;;;;;13.75;9.70;;;;;;;10.20;100.00;97930.48;1812067;77;21865;-60
2022/10/25 01:42:45;;;;;;;13.30;10.10;;;;;;;10.19;100.00;97922.22;1825878;77;20958;-60
2022/10/25 01:45:26;;;;;;;13.60;9.95;;;;;;;10.21;100.00;97919.24;1801918;78;21415;-59
2022/10/25 01:48:17;;;;;;;17.30;9.15;;;;;;;10.23;100.00;97915.73;1784454;77;20952;-60
2022/10/25 01:50:45;;;;;;;15.28;8.95;;;;;;;10.25;100.00;97920.25;1830702;77;21499;-60
2022/10/25 01:53:12;;;;;;;12.60;9.53;;;;;;;10.25;100.00;97907.66;1810164;77;21101;-60
2022/10/25 01:55:56;;;;;;;14.50;10.23;;;;;;;10.28;100.00;97911.64;1819257;77;20871;-60
2022/10/25 01:58:51;;;;;;;12.40;9.95;;;;;;;10.32;100.00;97911.88;1829905;77;21529;-59
2022/10/25 02:01:41;;;;;;;11.45;8.70;;;;;;;10.36;100.00;97913.68;1823968;77;20853;-60
2022/10/25 02:04:31;;;;;;;12.45;8.70;;;;;;;10.40;100.00;97909.33;1793731;78;20877;-59
2022/10/25 02:07:26;;;;;;;14.18;9.60;;;;;;;10.47;100.00;97904.41;1721548;80;21262;-60
2022/10/25 02:10:01;;;;;;;14.98;9.85;;;;;;;10.53;100.00;97904.56;1784581;77;20848;-59
2022/10/25 02:12:59;;;;;;;11.70;9.73;;;;;;;10.54;100.00;97902.69;1831864;77;21006;-60
2022/10/25 02:15:43;;;;;;;11.48;8.55;;;;;;;10.54;100.00;97904.83;1761525;80;20945;-60
2022/10/25 02:18:14;;;;;;;13.25;9.50;;;;;;;10.55;100.00;97901.05;1824857;77;20875;-59
2022/10/25 02:20:42;;;;;;;11.35;8.98;;;;;;;10.55;100.00;97898.37;1754831;80;21298;-59
2022/10/25 02:23:09;;;;;;;10.45;8.98;;;;;;;10.56;100.00;97896.49;1756253;80;20972;-59
2022/10/25 02:25:37;;;;;;;12.82;9.40;;;;;;;10.56;100.00;97894.62;1762527;80;20927;-59
2022/10/25 02:28:06;;;;;;;11.03;9.63;;;;;;;10.58;100.00;97895.66;1764657;80;20952;-59
2022/10/25 02:30:33;;;;;;;13.13;9.20;;;;;;;10.60;100.00;97896.95;1823362;77;21045;-58
2022/10/25 02:33:00;;;;;;;12.05;8.75;;;;;;;10.64;100.00;97893.16;1819422;77;21775;-59
2022/10/25 02:35:27;;;;;;;10.53;8.68;;;;;;;10.66;100.00;97890.44;1823593;77;20944;-59
2022/10/25 02:37:54;;;;;;;13.50;9.58;;;;;;;10.68;100.00;97888.27;1826956;77;21000;-58
2022/10/25 02:40:21;;;;;;;15.83;9.40;;;;;;;10.70;100.00;97882.60;1808309;78;20957;-59
2022/10/25 02:42:48;;;;;;;11.95;9.95;;;;;;;10.71;100.00;97886.34;1822116;77;20876;-59
2022/10/25 02:45:15;;;;;;;13.10;9.98;;;;;;;10.72;100.00;97879.88;1784030;79;20992;-59
2022/10/25 02:47:41;;;;;;;13.03;9.03;;;;;;;10.75;100.00;97872.61;1819260;77;20856;-59
2022/10/25 02:50:08;;;;;;;9.83;8.25;;;;;;;10.83;100.00;97876.50;1823169;77;20995;-60
2022/10/25 02:52:36;;;;;;;11.33;8.30;;;;;;;10.93;100.00;97878.98;1810154;78;20841;-59
2022/10/25 02:55:05;;;;;;;14.80;9.20;;;;;;;10.97;100.00;97874.08;1816683;77;21411;-61
2022/10/25 02:57:36;;;;;;;11.65;8.75;;;;;;;10.98;100.00;97864.97;1829818;77;21242;-60
2022/10/25 03:00:06;;;;;;;11.35;8.93;;;;;;;10.88;100.00;97861.11;1822977;77;20997;-61
2022/10/25 03:02:33;;;;;;;14.18;8.75;;;;;;;10.80;100.00;97861.81;1818191;77;21779;-61
2022/10/25 03:05:01;;;;;;;13.55;8.23;;;;;;;10.79;100.00;97863.42;1819376;77;20895;-60
2022/10/25 03:07:28;;;;;;;12.30;8.50;;;;;;;10.79;100.00;97856.19;1825917;77;20853;-60
2022/10/25 03:09:55;;;;;;;12.40;8.95;;;;;;;10.82;100.00;97850.79;1821519;77;21192;-60
2022/10/25 03:12:21;;;;;;;11.83;8.85;;;;;;;10.84;100.00;97838.69;1825879;77;20856;-60
2022/10/25 03:14:48;;;;;;;14.53;9.33;;;;;;;10.88;100.00;97837.57;1737859;79;21408;-61
2022/10/25 03:17:16;;;;;;;14.33;8.48;;;;;;;10.88;100.00;97838.34;1822549;77;20958;-60
2022/10/25 03:19:42;;;;;;;13.78;8.25;;;;;;;10.88;100.00;97838.91;1815092;77;20868;-60
2022/10/25 03:22:09;;;;;;;11.83;7.65;;;;;;;10.89;100.00;97839.94;1830445;77;21156;-60
2022/10/25 03:24:35;;;;;;;11.60;9.00;;;;;;;10.90;100.00;97832.70;1819280;77;21002;-60
2022/10/25 03:27:02;;;;;;;11.08;8.95;;;;;;;10.84;100.00;97837.34;1820419;77;21723;-59
2022/10/25 03:29:29;;;;;;;13.45;8.98;;;;;;;10.76;100.00;97838.02;1816602;77;20955;-60
2022/10/25 03:31:56;;;;;;;12.63;9.33;;;;;;;10.71;100.00;97832.77;1818147;77;21002;-59
2022/10/25 03:34:22;;;;;;;16.50;10.75;;;;;;;10.66;100.00;97838.21;1835347;77;21112;-60
2022/10/25 03:36:51;;;;;;;15.18;9.93;;;;;;;10.63;100.00;97830.75;1828556;77;21058;-59
2022/10/25 03:39:17;;;;;;;15.28;11.00;;;;;;;10.60;100.00;97830.56;1808249;78;20892;-60
2022/10/25 03:41:44;;;;;;;15.58;10.23;;;;;;;10.60;100.00;97829.99;1772047;80;21431;-60
2022/10/25 03:44:10;;;;;;;12.58;9.05;;;;;;;10.62;100.00;97829.16;1824024;77;21022;-60
2022/10/25 03:46:37;;;;;;;14.98;9.20;;;;;;;10.60;100.00;97820.63;1825806;77;21274;-60
2022/10/25 03:49:04;;;;;;;12.78;9.58;;;;;;;10.60;100.00;97824.64;1819412;77;21394;-60
2022/10/25 03:51:30;;;;;;;13.22;9.63;;;;;;;10.62;100.00;97823.80;1825747;77;20879;-60
2022/10/25 03:53:57;;;;;;;17.25;10.00;;;;;;;10.63;100.00;97823.26;1825786;77;21014;-60
2022/10/25 03:56:23;;;;;;;13.30;10.00;;;;;;;10.64;100.00;97832.36;1837143;77;20984;-60
2022/10/25 03:58:52;;;;;;;12.63;9.18;;;;;;;10.63;100.00;97838.79;1810391;77;21184;-60
2022/10/25 04:01:20;;;;;;;14.40;9.65;;;;;;;10.67;100.00;97837.11;1818245;77;20973;-60
2022/10/25 04:03:46;;;;;;;10.58;8.63;;;;;;;10.70;100.00;97840.55;1819520;77;20852;-60
2022/10/25 04:06:13;;;;;;;12.65;10.78;;;;;;;10.68;100.00;97840.59;1782706;79;20923;-59
2022/10/25 04:08:41;;;;;;;12.98;9.80;;;;;;;10.67;100.00;97826.39;1825634;77;21445;-60
2022/10/25 04:11:08;;;;;;;14.00;10.58;;;;;;;10.67;100.00;97828.30;1830557;77;21101;-60
2022/10/25 04:13:36;;;;;;;14.75;10.80;;;;;;;10.69;100.00;97836.83;1825598;77;20970;-59
2022/10/25 04:16:09;;;;;;;14.35;11.05;;;;;;;10.74;100.00;97840.77;1820603;77;21374;-59
2022/10/25 04:18:36;;;;;;;16.20;11.38;;;;;;;10.77;100.00;97834.80;1829094;77;20964;-60
2022/10/25 04:21:05;;;;;;;15.30;12.18;;;;;;;10.80;100.00;97822.16;1838563;77;20869;-60
2022/10/25 04:23:32;;;;;;;14.98;11.88;;;;;;;10.82;100.00;97818.09;1821437;77;21134;-60
2022/10/25 04:25:59;;;;;;;19.07;11.10;;;;;;;10.83;100.00;97816.99;1819316;77;20867;-60
2022/10/25 04:28:25;;;;;;;14.80;9.60;;;;;;;10.78;100.00;97813.09;1823868;77;21082;-61
2022/10/25 04:30:52;;;;;;;13.48;10.05;;;;;;;10.73;100.00;97811.84;1804657;79;20966;-60
2022/10/25 04:33:19;;;;;;;13.75;10.40;;;;;;;10.73;100.00;97803.80;1772575;80;21457;-60
2022/10/25 04:35:57;;;;;;;16.57;10.72;;;;;;;10.79;100.00;97814.66;1804255;79;21196;-59
2022/10/25 04:38:24;;;;;;;16.42;12.85;;;;;;;10.83;100.00;97819.67;1749466;80;21504;-60
2022/10/25 04:40:55;;;;;;;41.60;28.25;;;;;;;10.86;100.00;97819.09;1797103;79;20936;-59
2022/10/25 04:43:23;;;;;;;179.00;95.47;;;;;;;10.89;100.00;97815.02;1767915;80;20913;-60
2022/10/25 04:45:50;;;;;;;40.43;24.92;;;;;;;10.93;100.00;97822.17;1822184;77;20919;-59
2022/10/25 04:48:17;;;;;;;25.48;16.30;;;;;;;10.95;100.00;97824.01;1823426;77;21025;-61
2022/10/25 04:50:43;;;;;;;17.98;13.32;;;;;;;10.97;100.00;97825.84;1767713;80;20913;-60
2022/10/25 04:53:10;;;;;;;33.13;24.27;;;;;;;10.98;100.00;97828.78;1823393;77;20975;-63
2022/10/25 04:55:37;;;;;;;28.30;17.60;;;;;;;11.00;100.00;97833.30;1816733;77;20994;-61
2022/10/25 04:58:03;;;;;;;27.55;16.35;;;;;;;11.03;100.00;97821.19;1819611;77;21493;-61
2022/10/25 05:00:31;;;;;;;23.45;15.85;;;;;;;11.04;100.00;97811.27;1840580;77;21104;-61
2022/10/25 05:02:58;;;;;;;22.58;16.42;;;;;;;11.05;100.00;97804.80;1819389;77;21481;-61
2022/10/25 05:05:25;;;;;;;24.95;16.35;;;;;;;11.06;100.00;97799.70;1817486;77;21428;-61
2022/10/25 05:07:54;;;;;;;19.25;16.07;;;;;;;11.05;100.00;97808.28;1797131;78;21114;-62
2022/10/25 05:10:20;;;;;;;19.60;14.55;;;;;;;11.06;100.00;97815.78;1798775;77;21013;-60
2022/10/25 05:12:47;;;;;;;20.80;15.00;;;;;;;11.08;100.00;97813.06;1808183;77;21169;-60
2022/10/25 05:15:14;;;;;;;22.62;15.20;;;;;;;11.12;100.00;97802.52;1808319;78;20915;-60
2022/10/25 05:17:44;;;;;;;20.48;13.98;;;;;;;11.15;100.00;97797.91;1805193;78;20836;-59
2022/10/25 05:20:12;;;;;;;20.75;14.07;;;;;;;11.17;100.00;97798.41;1792997;79;21518;-60
2022/10/25 05:22:40;;;;;;;15.28;13.58;;;;;;;11.20;100.00;97812.56;1776167;80;20857;-60
2022/10/25 05:25:08;;;;;;;19.75;14.43;;;;;;;11.21;100.00;97814.94;1807290;78;22003;-60
2022/10/25 05:27:38;;;;;;;15.53;13.55;;;;;;;11.23;100.00;97814.66;1802495;78;21435;-61
2022/10/25 05:30:06;;;;;;;23.77;14.95;;;;;;;11.23;100.00;97817.34;1790907;79;20915;-60
2022/10/25 05:32:34;;;;;;;18.07;13.88;;;;;;;11.25;100.00;97823.19;1782680;78;20969;-60
2022/10/25 05:35:01;;;;;;;18.42;13.85;;;;;;;11.27;100.00;97828.50;1792610;79;21458;-60
2022/10/25 05:37:28;;;;;;;43.90;34.98;;;;;;;11.27;100.00;97840.57;1746703;80;21238;-64
2022/10/25 05:42:33;;;;;;;24.80;17.75;;;;;;;11.28;100.00;97833.33;1768894;79;21058;-61
2022/10/25 05:45:00;;;;;;;28.95;19.40;;;;;;;11.30;100.00;97848.56;1811652;77;21090;-62
2022/10/25 05:47:26;;;;;;;25.65;18.07;;;;;;;11.28;100.00;97846.73;1819881;77;20978;-63
2022/10/25 05:49:53;;;;;;;24.77;17.15;;;;;;;11.27;100.00;97841.11;1832819;77;21106;-65
2022/10/25 05:52:20;;;;;;;26.00;16.55;;;;;;;11.27;100.00;97837.09;1821744;77;21011;-60
2022/10/25 05:54:47;;;;;;;20.97;14.65;;;;;;;11.32;100.00;97845.04;1820970;77;20943;-60
2022/10/25 05:57:15;;;;;;;23.12;15.58;;;;;;;11.37;100.00;97843.60;1831888;77;21654;-60
2022/10/25 05:59:43;;;;;;;21.05;15.53;;;;;;;11.40;100.00;97845.70;1810746;78;21419;-62
2022/10/25 06:02:14;;;;;;;20.45;14.47;;;;;;;11.41;100.00;97845.92;1802679;77;21226;-64
2022/10/25 06:04:42;;;;;;;19.20;15.03;;;;;;;11.44;100.00;97848.02;1799222;77;21172;-61
2022/10/25 06:07:09;;;;;;;28.47;16.50;;;;;;;11.46;100.00;97840.47;1801635;77;21019;-60
2022/10/25 06:09:39;;;;;;;32.50;22.98;;;;;;;11.50;100.00;97845.47;1817306;77;21473;-60
2022/10/25 06:12:07;;;;;;;35.80;26.27;;;;;;;11.52;100.00;97847.30;1799491;77;21034;-61
2022/10/25 06:14:34;;;;;;;36.65;27.45;;;;;;;11.56;100.00;97844.29;1812123;78;21103;-60
2022/10/25 06:17:02;;;;;;;43.05;32.30;;;;;;;11.60;100.00;97849.30;1817363;77;21102;-63
2022/10/25 06:19:30;;;;;;;46.02;35.80;;;;;;;11.63;100.00;97847.36;1808587;77;20979;-61
2022/10/25 06:22:00;;;;;;;31.75;22.30;;;;;;;11.66;100.00;97843.52;1795775;78;21105;-60
2022/10/25 06:24:30;;;;;;;33.85;23.47;;;;;;;11.71;100.00;97844.53;1785729;79;21091;-60
2022/10/25 06:26:59;;;;;;;30.45;19.45;;;;;;;11.72;100.00;97836.20;1818576;77;21239;-60
2022/10/25 06:29:27;;;;;;;35.25;23.25;;;;;;;11.73;100.00;97851.19;1813748;77;20972;-60
2022/10/25 06:31:54;;;;;;;29.48;21.65;;;;;;;11.74;100.00;97845.28;1801208;77;21027;-60
2022/10/25 06:34:20;;;;;;;33.53;23.90;;;;;;;11.75;100.00;97851.70;1811401;78;21011;-59
2022/10/25 06:36:48;;;;;;;35.08;26.62;;;;;;;11.76;100.00;97857.30;1808945;77;20876;-60
2022/10/25 06:39:16;;;;;;;32.40;25.62;;;;;;;11.80;100.00;97855.59;1808277;78;21056;-60
2022/10/25 06:41:44;;;;;;;28.98;21.23;;;;;;;11.84;100.00;97853.12;1800303;77;21071;-60
2022/10/25 06:44:10;;;;;;;36.45;27.55;;;;;;;11.90;100.00;97855.38;1806255;77;21611;-60
2022/10/25 06:46:40;;;;;;;33.92;26.90;;;;;;;11.95;100.00;97853.94;1805516;77;21387;-60
2022/10/25 06:49:07;;;;;;;30.43;19.12;;;;;;;12.00;100.00;97853.83;1812101;77;20987;-60
2022/10/25 06:51:36;;;;;;;29.10;20.68;;;;;;;12.04;100.00;97848.09;1828740;77;21107;-60
2022/10/25 06:54:06;;;;;;;27.80;19.82;;;;;;;12.09;100.00;97850.67;1794155;77;21437;-61
2022/10/25 06:56:34;;;;;;;42.93;29.02;;;;;;;12.13;100.00;97850.30;1808839;78;20998;-61
2022/10/25 06:59:02;;;;;;;39.53;28.52;;;;;;;12.16;100.00;97848.91;1820196;78;20993;-60
2022/10/25 07:01:31;;;;;;;40.35;29.50;;;;;;;12.18;100.00;97848.84;1798396;77;21493;-60
2022/10/25 07:04:02;;;;;;;35.23;29.27;;;;;;;12.19;100.00;97843.73;1810056;77;21211;-60
2022/10/25 07:06:34;;;;;;;42.13;28.77;;;;;;;12.18;100.00;97848.84;1743590;80;20920;-61
2022/10/25 07:09:05;;;;;;;28.30;22.77;;;;;;;12.18;100.00;97847.50;1807032;78;20884;-60
2022/10/25 07:11:33;;;;;;;25.80;19.98;;;;;;;12.20;100.00;97846.64;1799540;77;21053;-62
2022/10/25 07:14:00;;;;;;;37.50;24.27;;;;;;;12.26;100.00;97844.11;1812044;77;20944;-62
2022/10/25 07:16:27;;;;;;;34.27;26.50;;;;;;;12.34;100.00;97844.70;1821126;77;21094;-60
2022/10/25 07:19:01;;;;;;;52.05;36.03;;;;;;;12.42;100.00;97842.39;1797405;78;21441;-60
2022/10/25 07:21:29;;;;;;;51.18;35.35;;;;;;;12.47;100.00;97835.55;1812153;77;21000;-59
2022/10/25 07:23:56;;;;;;;42.88;30.35;;;;;;;12.51;100.00;97837.86;1802553;77;21079;-59
2022/10/25 07:26:30;;;;;;;35.73;25.60;;;;;;;12.52;100.00;97832.75;1806878;78;21025;-60
2022/10/25 07:28:58;;;;;;;30.05;23.85;;;;;;;12.53;100.00;97827.63;1797971;78;21720;-60
2022/10/25 07:31:30;;;;;;;27.82;20.97;;;;;;;12.52;100.00;97824.69;1819643;77;21528;-59
2022/10/25 07:33:59;;;;;;;19.65;16.62;;;;;;;12.52;100.00;97824.14;1798160;77;21467;-60
2022/10/25 07:36:26;;;;;;;28.02;17.40;;;;;;;12.52;100.00;97826.83;1796381;78;21070;-60
2022/10/25 07:38:55;;;;;;;25.25;14.50;;;;;;;12.53;100.00;97829.74;1810897;78;20991;-59
2022/10/25 07:41:23;;;;;;;19.70;13.90;;;;;;;12.55;100.00;97829.45;1817441;77;21100;-59
2022/10/25 07:43:50;;;;;;;16.75;13.85;;;;;;;12.56;100.00;97825.66;1816253;77;20868;-60
2022/10/25 07:46:20;;;;;;;20.55;15.80;;;;;;;12.57;100.00;97824.56;1813408;77;21010;-61
2022/10/25 07:48:48;;;;;;;30.23;24.23;;;;;;;12.58;100.00;97820.77;1794333;77;20967;-61
2022/10/25 07:51:20;;;;;;;31.20;25.35;;;;;;;12.59;100.00;97819.13;1807949;77;21083;-60
2022/10/25 07:53:59;;;;;;;35.78;28.38;;;;;;;12.63;100.00;97821.98;1807017;78;21792;-59
2022/10/25 07:56:31;;;;;;;33.45;25.02;;;;;;;12.63;100.00;97828.70;1809965;78;21517;-60
2022/10/25 07:59:03;;;;;;;34.92;24.50;;;;;;;12.63;100.00;97826.02;1802561;78;33624;-60
2022/10/25 08:01:33;;;;;;;31.15;22.58;;;;;;;12.63;100.00;97829.50;1807537;77;21126;-61
2022/10/25 08:04:04;;;;;;;27.77;22.82;;;;;;;12.63;100.00;97826.02;1821589;77;21446;-60
2022/10/25 08:06:34;;;;;;;32.53;24.87;;;;;;;12.61;100.00;97822.84;1800498;77;21095;-59
2022/10/25 08:09:05;;;;;;;31.68;23.12;;;;;;;12.60;100.00;97815.90;1798537;78;20920;-59
2022/10/25 08:11:38;;;;;;;25.12;19.73;;;;;;;12.58;100.00;97819.42;1792600;78;20971;-58
2022/10/25 08:14:08;;;;;;;26.73;19.70;;;;;;;12.59;100.00;97816.98;1818098;77;21108;-59
2022/10/25 08:16:39;;;;;;;29.37;22.58;;;;;;;12.62;100.00;97821.76;1803756;77;20884;-59
2022/10/25 08:19:09;;;;;;;30.05;22.85;;;;;;;12.64;100.00;97828.41;1808007;77;21123;-60
2022/10/25 08:21:41;;;;;;;30.92;19.37;;;;;;;12.68;100.00;97831.27;1798582;78;21525;-60
2022/10/25 08:24:11;;;;;;;24.65;18.12;;;;;;;12.68;100.00;97833.95;1804883;77;21055;-59
2022/10/25 08:26:40;;;;;;;18.00;14.73;;;;;;;12.74;100.00;97818.73;1810752;77;21109;-58
2022/10/25 08:29:11;;;;;;;24.95;17.98;;;;;;;12.79;100.00;97817.26;1811863;77;21115;-59
2022/10/25 08:31:41;;;;;;;19.02;15.03;;;;;;;12.87;100.00;97815.72;1807386;77;21094;-59
2022/10/25 08:34:09;;;;;;;18.30;12.98;;;;;;;12.93;100.00;97811.81;1809478;78;21098;-59
2022/10/25 08:36:50;;;;;;;19.37;12.35;;;;;;;13.00;100.00;97799.48;1807913;77;20973;-59
2022/10/25 08:39:22;;;;;;;15.98;11.22;;;;;;;13.13;100.00;97797.05;1812507;77;21017;-60
2022/10/25 08:41:57;;;;;;;14.98;11.80;;;;;;;13.26;100.00;97802.88;1812258;77;21039;-60
2022/10/25 08:44:38;;;;;;;;;;;;;;;13.36;100.00;97800.69;1810276;78;21395;-59
2022/10/25 08:47:20;;;;;;;15.38;11.53;;;;;;;13.46;100.00;97801.75;1820051;77;20098;-61
2022/10/25 08:50:13;;;;;;;17.12;11.83;;;;;;;13.50;100.00;97800.00;1798411;77;21025;-61
2022/10/25 08:52:57;;;;;;;14.65;10.18;;;;;;;13.56;100.00;97803.35;1810820;77;21077;-61
2022/10/25 08:55:35;;;;;;;14.95;9.65;;;;;;;13.59;100.00;97803.50;1810204;78;21439;-61
2022/10/25 08:58:04;;;;;;;14.38;10.10;;;;;;;13.64;100.00;97799.33;1811410;77;21194;-60
2022/10/25 09:00:39;;;;;;;14.15;9.93;;;;;;;13.67;100.00;97801.39;1805162;77;21084;-60
2022/10/25 09:03:24;;;;;;;16.87;10.68;;;;;;;13.64;100.00;97803.36;1809096;78;20971;-61
2022/10/25 09:06:30;;;;;;;14.58;9.88;;;;;;;13.59;100.00;97807.54;1808929;77;21031;-60
2022/10/25 09:09:32;;;;;;;16.07;9.08;;;;;;;13.55;100.00;97807.14;1807122;77;20989;-59
2022/10/25 09:12:31;;;;;;;15.15;10.45;;;;;;;13.50;100.00;97809.42;1811496;77;21081;-62
2022/10/25 09:15:15;;;;;;;12.45;10.05;;;;;;;13.47;100.00;97814.08;1789109;78;21129;-59
2022/10/25 09:17:51;;;;;;;11.22;9.40;;;;;;;13.47;100.00;97816.00;1810808;78;20940;-62
2022/10/25 09:20:26;;;;;;;14.20;9.93;;;;;;;13.48;100.00;97827.78;1804442;78;21067;-59
2022/10/25 09:23:16;;;;;;;12.47;8.98;;;;;;;13.45;100.00;97827.05;1814369;78;21055;-59
2022/10/25 09:26:13;;;;;;;13.38;9.40;;;;;;;13.42;100.00;97823.66;1784112;78;21074;-63
2022/10/25 09:28:52;;;;;;;15.32;10.32;;;;;;;13.37;100.00;97830.53;1765563;79;21004;-60
2022/10/25 09:31:22;;;;;;;16.95;10.30;;;;;;;13.32;100.00;97828.52;1810518;78;21083;-61
2022/10/25 09:33:54;;;;;;;13.20;9.45;;;;;;;13.33;100.00;97827.43;1806278;77;21023;-60
2022/10/25 09:36:27;;;;;;;14.30;10.35;;;;;;;13.35;100.00;97830.05;1799065;78;21047;-61
2022/10/25 09:39:11;;;;;;;15.63;10.80;;;;;;;13.37;100.00;97818.97;1811104;78;21135;-60
2022/10/25 09:41:47;;;;;;;15.78;12.18;;;;;;;13.37;100.00;97814.39;1798221;77;21062;-59
2022/10/25 09:44:24;;;;;;;17.67;10.98;;;;;;;13.35;100.00;97809.88;1793209;78;20963;-60
2022/10/25 09:47:21;;;;;;;18.23;11.20;;;;;;;13.34;100.00;97803.44;1806415;78;21070;-61
2022/10/25 09:49:54;;;;;;;15.23;12.00;;;;;;;13.32;100.00;97796.24;1784003;78;21136;-59
2022/10/25 09:52:43;;;;;;;16.52;13.75;;;;;;;13.32;100.00;97805.11;1815440;77;21194;-60
2022/10/25 09:55:36;;;;;;;17.45;13.15;;;;;;;13.31;100.00;97807.55;1796778;77;21045;-59
2022/10/25 09:58:03;;;;;;;19.02;13.32;;;;;;;13.26;100.00;97802.30;1828158;77;21083;-61
2022/10/25 10:00:30;;;;;;;18.40;13.22;;;;;;;13.21;100.00;97802.47;1810468;78;21498;-59
2022/10/25 10:02:57;;;;;;;16.73;13.45;;;;;;;13.19;100.00;97792.55;1809502;78;20941;-60
2022/10/25 10:05:23;;;;;;;20.62;15.18;;;;;;;13.25;100.00;97792.67;1809185;78;21221;-60
2022/10/25 10:07:50;;;;;;;21.35;14.73;;;;;;;13.27;100.00;97785.08;1788972;78;20893;-59
2022/10/25 10:10:25;;;;;;;20.52;15.30;;;;;;;13.25;100.00;97785.95;1796104;78;21450;-60
2022/10/25 10:13:04;;;;;;;24.75;14.93;;;;;;;13.22;100.00;97778.49;1819779;77;20987;-61
2022/10/25 10:15:46;;;;;;;22.58;15.13;;;;;;;13.20;100.00;97779.91;1780644;78;21419;-59
2022/10/25 10:18:29;;;;;;;20.68;16.30;;;;;;;13.18;100.00;97787.50;1832946;77;21228;-62
2022/10/25 10:21:10;;;;;;;23.47;15.53;;;;;;;13.18;100.00;97785.61;1796160;77;21139;-62
2022/10/25 10:23:49;;;;;;;20.88;15.88;;;;;;;13.17;100.00;97788.04;1829164;77;20936;-60
2022/10/25 10:26:23;;;;;;;22.95;15.28;;;;;;;13.14;100.00;97781.97;1790210;79;21127;-59
2022/10/25 10:29:10;;;;;;;23.30;16.20;;;;;;;13.09;100.00;97779.41;1800846;78;21095;-61
2022/10/25 10:31:40;;;;;;;30.85;17.23;;;;;;;13.06;100.00;97771.95;1798554;78;21265;-66
2022/10/25 10:34:29;;;;;;;20.60;14.85;;;;;;;13.09;100.00;97775.92;1759977;80;21111;-61
2022/10/25 10:37:13;;;;;;;22.17;14.53;;;;;;;13.05;100.00;97764.95;1753149;80;21043;-59
2022/10/25 10:40:12;;;;;;;21.68;14.85;;;;;;;13.02;100.00;97773.66;1834870;77;21059;-61
2022/10/25 10:42:52;;;;;;;26.82;16.57;;;;;;;12.95;100.00;97778.12;1806569;77;21007;-63
2022/10/25 10:45:25;;;;;;;22.70;15.70;;;;;;;12.91;100.00;97775.02;1796098;77;21860;-61
2022/10/25 10:47:57;;;;;;;19.57;14.75;;;;;;;12.88;100.00;97777.77;1797712;77;20977;-61
2022/10/25 10:50:34;;;;;;;26.12;16.87;;;;;;;12.90;100.00;97770.22;1805543;77;21074;-61
2022/10/25 10:53:08;;;;;;;26.10;17.05;;;;;;;12.94;100.00;97777.89;1810306;78;21043;-63
2022/10/25 10:55:48;;;;;;;22.17;14.70;;;;;;;12.98;100.00;97765.95;1809339;78;21020;-63
2022/10/25 10:58:31;;;;;;;18.77;12.98;;;;;;;13.03;100.00;97760.44;1813288;78;22170;-62
2022/10/25 11:01:09;;;;;;;15.95;11.97;;;;;;;13.07;100.00;97762.80;1811710;77;21035;-61
2022/10/25 11:03:44;;;;;;;20.60;14.33;;;;;;;13.09;100.00;97763.82;1799929;77;21424;-61
2022/10/25 11:06:26;;;;;;;22.55;15.15;;;;;;;13.10;100.00;97758.67;1801670;78;20893;-62
2022/10/25 11:09:22;;;;;;;22.90;15.50;;;;;;;13.11;100.00;97757.03;1800228;78;21113;-62
2022/10/25 11:12:17;;;;;;;22.00;14.80;;;;;;;13.16;100.00;97763.62;1757854;80;21062;-59
2022/10/25 11:14:54;;;;;;;26.62;14.35;;;;;;;13.19;100.00;97769.69;1816388;77;21038;-61
2022/10/25 11:17:31;;;;;;;21.00;14.15;;;;;;;13.16;100.00;97767.65;1826720;77;21392;-61
2022/10/25 11:20:35;;;;;;;23.00;15.48;;;;;;;13.15;100.00;97786.22;1818219;77;21055;-60
2022/10/25 11:23:25;;;;;;;27.10;14.28;;;;;;;13.12;100.00;97776.08;1782886;79;21014;-60
2022/10/25 11:26:04;;;;;;;17.98;13.22;;;;;;;13.08;100.00;97781.84;1801972;78;21815;-59
2022/10/25 11:28:49;;;;;;;17.60;12.13;;;;;;;13.03;100.00;97782.75;1758460;78;21057;-58
2022/10/25 11:31:35;;;;;;;18.42;12.35;;;;;;;12.98;100.00;97779.39;1798204;78;21077;-59
2022/10/25 11:34:16;;;;;;;15.43;11.97;;;;;;;12.95;100.00;97776.77;1811704;78;21031;-60
2022/10/25 11:37:01;;;;;;;15.00;12.47;;;;;;;12.94;100.00;97782.47;1807072;78;21036;-59
2022/10/25 11:39:58;;;;;;;18.05;13.25;;;;;;;12.94;100.00;97787.30;1797021;78;21716;-60
2022/10/25 11:43:03;;;;;;;15.35;12.03;;;;;;;12.93;100.00;97787.62;1791598;78;20935;-60
2022/10/25 11:45:47;;;;;;;13.65;11.75;;;;;;;12.89;100.00;97791.47;1792435;79;21279;-61
2022/10/25 11:48:44;;;;;;;17.00;12.85;;;;;;;12.92;100.00;97800.81;1787701;79;20973;-59
2022/10/25 11:51:19;;;;;;;17.37;12.55;;;;;;;12.92;100.00;97808.33;1797379;77;21514;-59
2022/10/25 11:54:04;;;;;;;17.45;13.15;;;;;;;12.89;100.00;97812.17;1756252;80;21826;-61
2022/10/25 11:56:56;;;;;;;14.43;11.22;;;;;;;12.83;100.00;97807.50;1815913;77;21005;-61
2022/10/25 11:59:47;;;;;;;15.25;12.33;;;;;;;12.80;100.00;97804.62;1800674;77;20963;-59
2022/10/25 12:02:52;;;;;;;13.95;12.50;;;;;;;12.79;100.00;97803.02;1775596;78;21109;-59
2022/10/25 12:05:52;;;;;;;17.37;13.98;;;;;;;12.77;100.00;97802.54;1812961;78;21098;-60